Time;durP1;ratioP1;P1;durP2;ratioP2;P2;SDS_P1;SDS_P2;PMS_P1;PMS_P2;Temp;Humidity;BMP_temperature;BMP_pressure;BME280_temperature;BME280_humidity;BME280_pressure;Samples;Min_cycle;Max_cycle;Signal;HPM_P1;HPM_P2
2024/01/09 00:00:02;;;;;;;43.78;42.05;;;;;;;;;;5093789;28;20048;-71
2024/01/09 00:02:28;;;;;;;45.60;43.35;;;;;;;;;;5092659;28;20332;-71
2024/01/09 00:04:55;;;;;;;48.53;46.72;;;;;;;;;;5093606;28;20549;-70
2024/01/09 00:07:22;;;;;;;38.70;37.25;;;;;;;;;;5093831;28;20036;-71
2024/01/09 00:09:49;;;;;;;46.05;44.13;;;;;;;;;;5093472;28;20575;-72
2024/01/09 00:12:15;;;;;;;40.67;39.15;;;;;;;;;;5092393;28;20044;-71
2024/01/09 00:14:42;;;;;;;39.58;37.97;;;;;;;;;;5093007;28;20298;-71
2024/01/09 00:17:08;;;;;;;24.88;23.63;;;;;;;;;;5092162;28;20460;-70
2024/01/09 00:19:35;;;;;;;38.78;37.40;;;;;;;;;;5091651;28;20114;-71
2024/01/09 00:22:02;;;;;;;45.80;44.03;;;;;;;;;;5093577;28;20097;-71
2024/01/09 00:24:30;;;;;;;38.55;37.05;;;;;;;;;;5093357;28;20051;-71
2024/01/09 00:26:56;;;;;;;41.42;39.70;;;;;;;;;;5090936;28;20101;-71
2024/01/09 00:29:23;;;;;;;47.28;45.47;;;;;;;;;;5094013;28;20109;-70
2024/01/09 00:31:49;;;;;;;40.30;37.90;;;;;;;;;;5092305;28;20465;-70
2024/01/09 00:34:16;;;;;;;49.88;48.05;;;;;;;;;;5093594;28;20522;-69
2024/01/09 00:36:43;;;;;;;46.55;44.65;;;;;;;;;;5093690;28;20050;-69
2024/01/09 00:39:10;;;;;;;43.05;41.42;;;;;;;;;;5092327;28;20122;-70
2024/01/09 00:41:38;;;;;;;52.65;50.80;;;;;;;;;;5093532;28;20123;-70
2024/01/09 00:44:04;;;;;;;48.33;46.50;;;;;;;;;;5107886;28;20108;-71
2024/01/09 00:46:31;;;;;;;38.28;36.78;;;;;;;;;;5113752;28;20043;-70
2024/01/09 00:48:57;;;;;;;44.08;42.45;;;;;;;;;;5113832;28;20097;-70
2024/01/09 00:51:24;;;;;;;48.58;46.55;;;;;;;;;;5113881;28;20054;-70
2024/01/09 00:53:51;;;;;;;48.22;46.35;;;;;;;;;;5113502;28;20051;-71
2024/01/09 00:56:18;;;;;;;44.97;43.30;;;;;;;;;;5080272;28;20080;-70
2024/01/09 00:58:45;;;;;;;50.03;47.97;;;;;;;;;;5074006;28;20060;-70
2024/01/09 01:01:12;;;;;;;46.05;44.25;;;;;;;;;;5094027;28;20044;-71
2024/01/09 01:03:40;;;;;;;39.97;38.53;;;;;;;;;;5092869;28;20499;-70
2024/01/09 01:06:06;;;;;;;45.80;43.92;;;;;;;;;;5093263;28;20086;-70
2024/01/09 01:08:33;;;;;;;40.90;39.42;;;;;;;;;;5092867;28;20044;-70
2024/01/09 01:11:00;;;;;;;50.05;48.30;;;;;;;;;;5091813;28;20047;-69
2024/01/09 01:13:26;;;;;;;44.10;42.15;;;;;;;;;;5096574;28;20035;-69
2024/01/09 01:15:54;;;;;;;28.98;27.77;;;;;;;;;;5113126;28;20443;-69
2024/01/09 01:18:21;;;;;;;44.33;42.20;;;;;;;;;;5111388;28;21168;-69
2024/01/09 01:20:47;;;;;;;47.38;45.58;;;;;;;;;;5113227;28;20051;-69
2024/01/09 01:23:14;;;;;;;49.40;47.55;;;;;;;;;;5113064;28;20054;-69
2024/01/09 01:25:41;;;;;;;48.60;46.45;;;;;;;;;;5112215;28;20130;-69
2024/01/09 01:28:07;;;;;;;47.30;45.30;;;;;;;;;;5113134;28;20043;-69
2024/01/09 01:30:34;;;;;;;50.80;48.88;;;;;;;;;;5093080;28;20044;-69
2024/01/09 01:33:01;;;;;;;45.50;43.20;;;;;;;;;;5092447;28;20044;-69
2024/01/09 01:35:28;;;;;;;40.83;39.25;;;;;;;;;;5097743;28;20043;-69
2024/01/09 01:37:54;;;;;;;48.17;46.42;;;;;;;;;;5112684;28;20567;-69
2024/01/09 01:40:21;;;;;;;24.67;23.67;;;;;;;;;;5112972;28;20464;-69
2024/01/09 01:42:47;;;;;;;46.08;44.47;;;;;;;;;;5112588;28;20059;-70
2024/01/09 01:45:16;;;;;;;48.08;45.65;;;;;;;;;;5103815;28;20063;-71
2024/01/09 01:47:43;;;;;;;46.42;44.55;;;;;;;;;;5092272;28;20072;-71
2024/01/09 01:50:11;;;;;;;46.47;44.47;;;;;;;;;;5092347;28;20048;-71
2024/01/09 01:52:38;;;;;;;50.75;48.78;;;;;;;;;;5094426;28;20044;-71
2024/01/09 01:55:05;;;;;;;41.50;39.92;;;;;;;;;;5112760;28;20051;-71
2024/01/09 01:57:32;;;;;;;49.92;48.08;;;;;;;;;;5112375;28;20052;-70
2024/01/09 01:59:59;;;;;;;45.88;44.03;;;;;;;;;;5112324;28;20047;-70
2024/01/09 02:02:26;;;;;;;41.40;39.90;;;;;;;;;;5100008;28;20048;-71
2024/01/09 02:04:52;;;;;;;43.92;41.97;;;;;;;;;;5091886;28;20047;-72
2024/01/09 02:07:24;;;;;;;45.42;43.70;;;;;;;;;;5092158;28;20063;-70
2024/01/09 02:09:53;;;;;;;34.60;33.22;;;;;;;;;;5092943;28;20120;-70
2024/01/09 02:12:19;;;;;;;43.88;41.97;;;;;;;;;;5071721;28;20056;-71
2024/01/09 02:14:46;;;;;;;26.58;25.55;;;;;;;;;;5071625;28;20461;-70
2024/01/09 02:17:13;;;;;;;40.97;39.33;;;;;;;;;;5071779;28;20052;-70
2024/01/09 02:19:39;;;;;;;46.47;44.67;;;;;;;;;;5083195;28;20089;-71
2024/01/09 02:22:06;;;;;;;43.53;41.67;;;;;;;;;;5091711;28;20048;-71
2024/01/09 02:24:33;;;;;;;25.80;24.65;;;;;;;;;;5091725;28;20467;-69
2024/01/09 02:27:05;;;;;;;42.25;40.60;;;;;;;;;;5091666;28;20097;-71
2024/01/09 02:29:33;;;;;;;45.33;43.53;;;;;;;;;;5091441;28;20043;-70
2024/01/09 02:32:02;;;;;;;35.05;33.58;;;;;;;;;;5091647;28;20516;-71
2024/01/09 02:34:29;;;;;;;51.28;49.38;;;;;;;;;;5090210;28;20054;-70
2024/01/09 02:36:55;;;;;;;54.75;52.55;;;;;;;;;;5091491;28;20059;-69
2024/01/09 02:39:22;;;;;;;41.47;39.75;;;;;;;;;;5091703;28;20052;-70
2024/01/09 02:41:48;;;;;;;45.05;43.28;;;;;;;;;;5091373;28;20056;-69
2024/01/09 02:44:16;;;;;;;39.72;37.92;;;;;;;;;;5091479;28;20056;-69
2024/01/09 02:46:42;;;;;;;40.28;38.75;;;;;;;;;;5091568;28;20117;-69
2024/01/09 02:49:08;;;;;;;;;;;;;;;;;;5092003;28;20052;-70
2024/01/09 02:51:35;;;;;;;;;;;;;;;;;;5090598;28;19928;-70
2024/01/09 02:54:01;;;;;;;;;;;;;;;;;;5092092;28;19927;-69
2024/01/09 02:56:28;;;;;;;;;;;;;;;;;;5091826;28;20332;-69
2024/01/09 02:58:54;;;;;;;;;;;;;;;;;;5091590;28;19927;-69
2024/01/09 03:01:20;;;;;;;;;;;;;;;;;;5102724;28;19923;-70
2024/01/09 03:03:47;;;;;;;;;;;;;;;;;;5111953;28;19923;-69
2024/01/09 03:06:13;;;;;;;;;;;;;;;;;;5106391;28;19965;-70
2024/01/09 03:08:39;;;;;;;;;;;;;;;;;;5091707;28;20279;-70
2024/01/09 03:11:05;;;;;;;;;;;;;;;;;;5091692;28;19928;-70
2024/01/09 03:13:32;;;;;;;;;;;;;;;;;;5091530;28;19990;-71
2024/01/09 03:15:58;;;;;;;;;;;;;;;;;;5091802;28;20216;-71
2024/01/09 03:18:24;;;;;;;;;;;;;;;;;;5091635;28;19920;-71
2024/01/09 03:20:50;;;;;;;;;;;;;;;;;;5091535;28;19977;-71
2024/01/09 03:23:17;;;;;;;;;;;;;;;;;;5090051;28;19923;-71
2024/01/09 03:25:43;;;;;;;;;;;;;;;;;;5091385;28;19924;-70
2024/01/09 03:28:09;;;;;;;;;;;;;;;;;;5091747;28;19974;-70
2024/01/09 03:30:35;;;;;;;;;;;;;;;;;;5091340;28;19928;-70
2024/01/09 03:33:02;;;;;;;;;;;;;;;;;;5091522;28;20340;-70
2024/01/09 03:35:28;;;;;;;;;;;;;;;;;;5091568;28;20380;-69
2024/01/09 03:37:54;;;;;;;;;;;;;;;;;;5091308;28;19920;-69
2024/01/09 03:40:20;;;;;;;;;;;;;;;;;;5090202;28;19928;-69
2024/01/09 03:42:47;;;;;;;;;;;;;;;;;;5091462;28;19928;-69
2024/01/09 03:45:13;;;;;;;;;;;;;;;;;;5091257;28;19946;-69
2024/01/09 03:47:39;;;;;;;;;;;;;;;;;;5091413;28;19920;-69
2024/01/09 03:50:05;;;;;;;;;;;;;;;;;;5093964;28;20379;-69
2024/01/09 03:52:31;;;;;;;;;;;;;;;;;;5094933;28;20344;-69
2024/01/09 03:54:58;;;;;;;;;;;;;;;;;;5094762;28;20064;-68
2024/01/09 03:57:24;;;;;;;;;;;;;;;;;;5093727;28;19920;-69
2024/01/09 03:59:50;;;;;;;;;;;;;;;;;;5094729;28;19924;-69
2024/01/09 04:02:16;;;;;;;;;;;;;;;;;;5110595;28;19920;-69
2024/01/09 04:04:43;;;;;;;;;;;;;;;;;;5114947;28;19923;-69
2024/01/09 04:07:09;;;;;;;;;;;;;;;;;;5115184;28;20381;-69
2024/01/09 04:09:35;;;;;;;;;;;;;;;;;;5115153;28;20373;-68
2024/01/09 04:12:01;;;;;;;;;;;;;;;;;;5115304;28;19923;-68
2024/01/09 04:14:27;;;;;;;;;;;;;;;;;;5104611;28;19983;-69
2024/01/09 04:16:53;;;;;;;;;;;;;;;;;;5094724;28;19920;-68
2024/01/09 04:19:19;;;;;;;;;;;;;;;;;;5094563;28;19924;-68
2024/01/09 04:21:45;;;;;;;;;;;;;;;;;;5113865;28;20335;-69
2024/01/09 04:24:12;;;;;;;;;;;;;;;;;;5114473;28;20290;-69
2024/01/09 04:26:38;;;;;;;;;;;;;;;;;;5094438;28;19974;-70
2024/01/09 04:29:04;;;;;;;;;;;;;;;;;;5093167;28;19927;-69
2024/01/09 04:31:30;;;;;;;;;;;;;;;;;;5086299;28;19924;-68
2024/01/09 04:33:57;;;;;;;;;;;;;;;;;;5092991;28;20383;-70
2024/01/09 04:36:23;;;;;;;;;;;;;;;;;;5094298;28;20298;-71
2024/01/09 04:38:49;;;;;;;;;;;;;;;;;;5094208;28;19924;-71
2024/01/09 04:41:16;;;;;;;;;;;;;;;;;;5094271;28;19928;-72
2024/01/09 04:43:42;;;;;;;;;;;;;;;;;;5093965;28;19926;-69
2024/01/09 04:46:08;;;;;;;;;;;;;;;;;;5093884;28;19924;-70
2024/01/09 04:48:35;;;;;;;;;;;;;;;;;;5092717;28;20420;-69
2024/01/09 04:51:01;;;;;;;;;;;;;;;;;;5093984;28;19989;-67
2024/01/09 04:53:27;;;;;;;;;;;;;;;;;;5093864;28;19920;-69
2024/01/09 04:55:53;;;;;;;;;;;;;;;;;;5093710;28;19924;-68
2024/01/09 04:58:20;;;;;;;;;;;;;;;;;;5093514;28;19930;-68
2024/01/09 05:00:46;;;;;;;;;;;;;;;;;;5098696;28;19923;-69
2024/01/09 05:03:12;;;;;;;;;;;;;;;;;;5114003;28;20336;-68
2024/01/09 05:05:39;;;;;;;;;;;;;;;;;;5100352;28;19923;-68
2024/01/09 05:08:05;;;;;;;;;;;;;;;;;;5113807;28;19924;-68
2024/01/09 05:10:31;;;;;;;;;;;;;;;;;;5113821;28;20362;-69
2024/01/09 05:12:58;;;;;;;;;;;;;;;;;;5113981;28;20443;-69
2024/01/09 05:15:24;;;;;;;;;;;;;;;;;;5113726;28;19972;-68
2024/01/09 05:17:50;;;;;;;;;;;;;;;;;;5113763;28;19923;-68
2024/01/09 05:20:16;;;;;;;;;;;;;;;;;;5106665;28;20386;-69
2024/01/09 05:22:43;;;;;;;;;;;;;;;;;;5093280;28;20499;-69
2024/01/09 05:25:09;;;;;;;;;;;;;;;;;;5093334;28;19928;-69
2024/01/09 05:27:35;;;;;;;;;;;;;;;;;;5093418;28;19923;-68
2024/01/09 05:30:02;;;;;;;;;;;;;;;;;;5093122;28;19973;-69
2024/01/09 05:32:29;;;;;;;;;;;;;;;;;;5092855;28;19930;-69
2024/01/09 05:34:55;;;;;;;;;;;;;;;;;;5112195;28;19924;-69
2024/01/09 05:37:21;;;;;;;;;;;;;;;;;;5113339;28;19923;-69
2024/01/09 05:39:47;;;;;;;;;;;;;;;;;;5112312;28;20366;-69
2024/01/09 05:42:14;;;;;;;;;;;;;;;;;;5093108;28;19919;-69
2024/01/09 05:44:40;;;;;;;;;;;;;;;;;;5092895;28;19969;-69
2024/01/09 05:47:06;;;;;;;;;;;;;;;;;;5099539;28;19920;-69
2024/01/09 05:49:32;;;;;;;;;;;;;;;;;;5092702;28;19966;-69
2024/01/09 05:51:59;;;;;;;;;;;;;;;;;;5092789;28;19973;-69
2024/01/09 05:54:25;;;;;;;;;;;;;;;;;;5092565;28;19924;-70
2024/01/09 05:56:53;;;;;;;;;;;;;;;;;;5110105;28;19923;-68
2024/01/09 05:59:19;;;;;;;;;;;;;;;;;;5099462;28;20037;-68
2024/01/09 06:01:45;;;;;;;;;;;;;;;;;;5113287;28;20336;-69
2024/01/09 06:04:12;;;;;;;;;;;;;;;;;;5112980;28;19920;-69
2024/01/09 06:06:38;;;;;;;;;;;;;;;;;;5095014;28;19973;-69
2024/01/09 06:09:04;;;;;;;;;;;;;;;;;;5092625;28;19920;-69
2024/01/09 06:11:30;;;;;;;;;;;;;;;;;;5105567;28;19976;-69
2024/01/09 06:13:57;;;;;;;;;;;;;;;;;;5112850;28;19926;-69
2024/01/09 06:16:23;;;;;;;;;;;;;;;;;;5110933;28;19972;-69
2024/01/09 06:18:49;;;;;;;;;;;;;;;;;;5112562;28;19928;-69
2024/01/09 06:21:16;;;;;;;;;;;;;;;;;;5104109;28;20341;-69
2024/01/09 06:23:42;;;;;;;;;;;;;;;;;;5090917;28;19973;-70
2024/01/09 06:26:08;;;;;;;;;;;;;;;;;;5092143;28;19926;-69
2024/01/09 06:28:34;;;;;;;;;;;;;;;;;;5092140;28;19920;-70
2024/01/09 06:31:01;;;;;;;;;;;;;;;;;;5092625;28;19999;-68
2024/01/09 06:33:27;;;;;;;;;;;;;;;;;;5092074;28;19965;-68
2024/01/09 06:35:54;;;;;;;;;;;;;;;;;;5090791;28;20374;-68
2024/01/09 06:38:20;;;;;;;;;;;;;;;;;;5091970;28;19981;-68
2024/01/09 06:40:46;;;;;;;;;;;;;;;;;;5092060;28;20215;-68
2024/01/09 06:43:12;;;;;;;;;;;;;;;;;;5091990;28;20411;-68
2024/01/09 06:45:39;;;;;;;;;;;;;;;;;;5095884;28;20332;-68
2024/01/09 06:48:05;;;;;;;;;;;;;;;;;;5099725;28;20359;-68
2024/01/09 06:50:31;;;;;;;;;;;;;;;;;;5112199;28;19924;-69
2024/01/09 06:52:57;;;;;;;;;;;;;;;;;;5089836;28;19981;-68
2024/01/09 06:55:23;;;;;;;;;;;;;;;;;;5091351;28;19924;-69
2024/01/09 06:57:50;;;;;;;;;;;;;;;;;;5092007;28;20052;-69
2024/01/09 07:00:16;;;;;;;;;;;;;;;;;;5091801;28;19920;-69
2024/01/09 07:02:43;;;;;;;;;;;;;;;;;;5094818;28;19931;-71
2024/01/09 07:05:09;;;;;;;;;;;;;;;;;;5072515;28;19920;-70
2024/01/09 07:07:36;;;;;;;;;;;;;;;;;;5081442;28;20298;-71
2024/01/09 07:10:02;;;;;;;;;;;;;;;;;;5087027;28;19933;-69
2024/01/09 07:12:28;;;;;;;;;;;;;;;;;;5075899;28;19977;-70
2024/01/09 07:14:54;;;;;;;;;;;;;;;;;;5076059;28;19920;-69
2024/01/09 07:17:21;;;;;;;;;;;;;;;;;;5091014;28;19924;-70
2024/01/09 07:19:48;;;;;;;;;;;;;;;;;;5091401;28;19949;-69
2024/01/09 07:22:14;;;;;;;;;;;;;;;;;;5072858;28;19920;-71
2024/01/09 07:24:40;;;;;;;;;;;;;;;;;;5090561;28;19928;-71
2024/01/09 07:27:06;;;;;;;;;;;;;;;;;;5098467;28;19920;-70
2024/01/09 07:29:33;;;;;;;;;;;;;;;;;;5087078;28;19921;-71
2024/01/09 07:31:59;;;;;;;;;;;;;;;;;;5112955;28;19920;-71
2024/01/09 07:34:25;;;;;;;;;;;;;;;;;;5095222;28;19977;-71
2024/01/09 07:36:51;;;;;;;;;;;;;;;;;;5095476;28;19928;-71
2024/01/09 07:39:18;;;;;;;;;;;;;;;;;;5086389;28;19931;-71
2024/01/09 07:41:44;;;;;;;;;;;;;;;;;;5094063;28;19923;-70
2024/01/09 07:44:11;;;;;;;;;;;;;;;;;;5093792;28;19973;-69
2024/01/09 07:46:38;;;;;;;;;;;;;;;;;;5103880;28;19964;-69
2024/01/09 07:49:04;;;;;;;;;;;;;;;;;;5094500;28;19920;-70
2024/01/09 07:51:30;;;;;;;;;;;;;;;;;;5095021;28;20538;-70
2024/01/09 07:53:56;;;;;;;;;;;;;;;;;;5094787;28;20006;-69
2024/01/09 07:56:23;;;;;;;;;;;;;;;;;;5089959;28;20427;-70
2024/01/09 07:58:49;;;;;;;;;;;;;;;;;;5095084;28;19920;-71
2024/01/09 08:01:16;;;;;;;;;;;;;;;;;;5099201;28;19924;-71
2024/01/09 08:03:42;;;;;;;;;;;;;;;;;;5094404;28;20027;-69
2024/01/09 08:06:08;;;;;;;;;;;;;;;;;;5088542;28;19977;-69
2024/01/09 08:08:38;;;;;;;;;;;;;;;;;;5086215;28;20278;-69
2024/01/09 08:11:04;;;;;;;;;;;;;;;;;;5086749;28;19920;-68
2024/01/09 08:13:30;;;;;;;;;;;;;;;;;;5087226;28;19935;-69
2024/01/09 08:15:57;;;;;;;;;;;;;;;;;;5090181;28;19973;-69
2024/01/09 08:18:23;;;;;;;;;;;;;;;;;;5096416;28;19928;-69
2024/01/09 08:20:49;;;;;;;;;;;;;;;;;;5091626;28;19928;-68
2024/01/09 08:23:15;;;;;;;;;;;;;;;;;;5093631;28;20352;-70
2024/01/09 08:25:42;;;;;;;;;;;;;;;;;;5091794;28;19920;-69
2024/01/09 08:28:08;;;;;;;;;;;;;;;;;;5093534;28;19965;-69
2024/01/09 08:30:34;;;;;;;;;;;;;;;;;;5085494;28;19963;-69
2024/01/09 08:33:01;;;;;;;;;;;;;;;;;;5085811;28;19924;-69
2024/01/09 08:35:27;;;;;;;;;;;;;;;;;;5091650;28;19924;-69
2024/01/09 08:37:53;;;;;;;;;;;;;;;;;;5091214;28;20337;-69
2024/01/09 08:40:19;;;;;;;;;;;;;;;;;;5091736;28;19931;-69
2024/01/09 08:42:46;;;;;;;;;;;;;;;;;;5086810;28;19924;-69
2024/01/09 08:45:12;;;;;;;;;;;;;;;;;;5085240;28;19924;-69
2024/01/09 08:47:38;;;;;;;;;;;;;;;;;;5092657;28;19939;-69
2024/01/09 08:50:05;;;;;;;;;;;;;;;;;;5092686;28;19924;-69
2024/01/09 08:52:31;;;;;;;;;;;;;;;;;;5085209;28;20408;-69
2024/01/09 08:54:57;;;;;;;;;;;;;;;;;;5086508;28;20390;-69
2024/01/09 08:57:24;;;;;;;;;;;;;;;;;;5085242;28;19931;-69
2024/01/09 08:59:50;;;;;;;;;;;;;;;;;;5092599;28;19924;-69
2024/01/09 09:02:16;;;;;;;;;;;;;;;;;;5091682;28;19927;-69
2024/01/09 09:04:42;;;;;;;;;;;;;;;;;;5092410;28;19923;-68
2024/01/09 09:07:09;;;;;;;;;;;;;;;;;;5078922;28;19928;-69
2024/01/09 09:09:35;;;;;;;;;;;;;;;;;;5092990;28;19924;-68
2024/01/09 09:12:02;;;;;;;;;;;;;;;;;;5080226;28;19947;-69
2024/01/09 09:14:28;;;;;;;;;;;;;;;;;;5078908;28;19926;-68
2024/01/09 09:16:55;;;;;;;;;;;;;;;;;;5090914;28;19939;-68
2024/01/09 09:19:23;;;;;;;;;;;;;;;;;;5093170;28;20003;-68
2024/01/09 09:21:49;;;;;;;;;;;;;;;;;;5079010;28;19920;-68
2024/01/09 09:24:15;;;;;;;;;;;;;;;;;;5092850;28;19946;-68
2024/01/09 09:26:42;;;;;;;;;;;;;;;;;;5088904;28;19924;-68
2024/01/09 09:29:08;;;;;;;;;;;;;;;;;;5090327;28;19920;-68
2024/01/09 09:31:34;;;;;;;;;;;;;;;;;;5087823;28;19993;-69
2024/01/09 09:34:00;;;;;;;;;;;;;;;;;;5084077;28;19928;-68
2024/01/09 09:36:27;;;;;;;;;;;;;;;;;;5085115;28;19923;-68
2024/01/09 09:38:53;;;;;;;;;;;;;;;;;;5089939;28;19931;-68
2024/01/09 09:41:19;;;;;;;;;;;;;;;;;;5091552;28;19920;-69
2024/01/09 09:43:46;;;;;;;;;;;;;;;;;;5092442;28;19920;-68
2024/01/09 09:46:12;;;;;;;;;;;;;;;;;;5081765;28;19924;-68
2024/01/09 09:48:38;;;;;;;;;;;;;;;;;;5086444;28;19974;-69
2024/01/09 09:51:04;;;;;;;;;;;;;;;;;;5080582;28;20374;-68
2024/01/09 09:53:31;;;;;;;;;;;;;;;;;;5087362;28;20429;-69
2024/01/09 09:55:58;;;;;;;;;;;;;;;;;;5076688;28;19924;-68
2024/01/09 09:58:24;;;;;;;;;;;;;;;;;;5092012;28;19927;-68
2024/01/09 10:00:51;;;;;;;;;;;;;;;;;;5092022;28;19980;-68
2024/01/09 10:03:17;;;;;;;;;;;;;;;;;;5085205;28;19921;-68
2024/01/09 10:05:44;;;;;;;;;;;;;;;;;;5092284;28;19929;-69
2024/01/09 10:08:10;;;;;;;;;;;;;;;;;;5092062;28;19923;-68
2024/01/09 10:10:36;;;;;;;;;;;;;;;;;;5091985;28;19920;-68
2024/01/09 10:13:03;;;;;;;;;;;;;;;;;;5092037;28;20271;-68
2024/01/09 10:15:29;;;;;;;;;;;;;;;;;;5091821;28;20344;-69
2024/01/09 10:17:55;;;;;;;;;;;;;;;;;;5083479;28;19986;-69
2024/01/09 10:20:22;;;;;;;;;;;;;;;;;;5081187;28;19969;-68
2024/01/09 10:22:48;;;;;;;;;;;;;;;;;;5093220;28;19973;-69
2024/01/09 10:25:16;;;;;;;;;;;;;;;;;;5084034;28;19920;-69
2024/01/09 10:27:42;;;;;;;;;;;;;;;;;;5094055;28;20419;-68
2024/01/09 10:30:09;;;;;;;;;;;;;;;;;;5091697;28;19920;-68
2024/01/09 10:32:35;;;;;;;;;;;;;;;;;;5091271;28;19923;-68
2024/01/09 10:35:03;;;;;;;;;;;;;;;;;;5091689;28;20440;-69
2024/01/09 10:37:29;;;;;;;;;;;;;;;;;;5088204;28;20011;-67
2024/01/09 10:39:55;;;;;;;;;;;;;;;;;;5081294;28;19924;-69
2024/01/09 10:42:21;;;;;;;;;;;;;;;;;;5082057;28;19945;-67
2024/01/09 10:44:48;;;;;;;;;;;;;;;;;;5069885;28;19974;-67
2024/01/09 10:47:14;;;;;;;;;;;;;;;;;;5078124;28;19998;-67
2024/01/09 10:49:41;;;;;;;;;;;;;;;;;;5083440;28;19963;-68
2024/01/09 10:52:07;;;;;;;;;;;;;;;;;;5080001;28;20006;-67
2024/01/09 10:54:33;;;;;;;;;;;;;;;;;;5081277;28;19973;-68
2024/01/09 10:57:00;;;;;;;;;;;;;;;;;;5081429;28;19931;-67
2024/01/09 10:59:26;;;;;;;;;;;;;;;;;;5094903;28;19973;-67
2024/01/09 11:01:52;;;;;;;;;;;;;;;;;;5095481;28;19973;-68
2024/01/09 11:04:18;;;;;;;;;;;;;;;;;;5091327;28;19923;-69
2024/01/09 11:06:45;;;;;;;;;;;;;;;;;;5093482;28;19928;-67
2024/01/09 11:09:11;;;;;;;;;;;;;;;;;;5100746;28;20379;-67
2024/01/09 11:11:37;;;;;;;;;;;;;;;;;;5077711;28;20332;-68
2024/01/09 11:14:06;;;;;;;;;;;;;;;;;;5089076;28;19920;-68
2024/01/09 11:16:33;;;;;;;;;;;;;;;;;;5080468;28;19960;-68
2024/01/09 11:18:59;;;;;;;;;;;;;;;;;;5086934;28;19978;-68
2024/01/09 11:21:26;;;;;;;;;;;;;;;;;;5088914;28;19946;-67
2024/01/09 11:24:00;;;;;;;;;;;;;;;;;;5092754;28;19967;-68
2024/01/09 11:26:27;;;;;;;;;;;;;;;;;;5090040;28;20006;-68
2024/01/09 11:28:53;;;;;;;;;;;;;;;;;;5100055;28;19923;-67
2024/01/09 11:31:20;;;;;;;;;;;;;;;;;;5089851;28;19921;-68
2024/01/09 11:33:46;;;;;;;;;;;;;;;;;;5087467;28;19924;-67
2024/01/09 11:36:14;;;;;;;;;;;;;;;;;;5094843;28;19924;-67
2024/01/09 11:38:40;;;;;;;;;;;;;;;;;;5085851;28;19924;-68
2024/01/09 11:41:07;;;;;;;;;;;;;;;;;;5088323;28;19965;-68
2024/01/09 11:43:33;;;;;;;;;;;;;;;;;;5091782;28;19963;-68
2024/01/09 11:45:59;;;;;;;;;;;;;;;;;;5080810;28;20370;-67
2024/01/09 11:48:25;;;;;;;;;;;;;;;;;;5091003;28;19923;-67
2024/01/09 11:50:51;;;;;;;;;;;;;;;;;;5094620;28;19924;-67
2024/01/09 11:53:18;;;;;;;;;;;;;;;;;;5093556;28;19932;-67
2024/01/09 11:55:45;;;;;;;;;;;;;;;;;;5094668;28;19967;-67
2024/01/09 11:58:11;;;;;;;;;;;;;;;;;;5091126;28;19931;-68
2024/01/09 12:00:37;;;;;;;;;;;;;;;;;;5092190;28;19920;-67
2024/01/09 12:03:03;;;;;;;;;;;;;;;;;;5092946;28;19920;-67
2024/01/09 12:05:30;;;;;;;;;;;;;;;;;;5093819;28;19924;-67
2024/01/09 12:07:57;;;;;;;;;;;;;;;;;;5091775;28;19920;-67
2024/01/09 12:10:23;;;;;;;;;;;;;;;;;;5093042;28;19977;-67
2024/01/09 12:12:49;;;;;;;;;;;;;;;;;;5086395;28;19974;-67
2024/01/09 12:15:16;;;;;;;;;;;;;;;;;;5081513;28;19920;-69
2024/01/09 12:17:45;;;;;;;;;;;;;;;;;;5092103;28;19981;-67
2024/01/09 12:20:11;;;;;;;;;;;;;;;;;;5082730;28;19920;-67
2024/01/09 12:22:37;;;;;;;;;;;;;;;;;;5089965;28;19959;-67
2024/01/09 12:25:03;;;;;;;;;;;;;;;;;;5093188;28;19924;-66
2024/01/09 12:27:30;;;;;;;;;;;;;;;;;;5091900;28;19924;-66
2024/01/09 12:29:56;;;;;;;;;;;;;;;;;;5093554;28;20386;-66
2024/01/09 12:32:22;;;;;;;;;;;;;;;;;;5086420;28;19920;-67
2024/01/09 12:34:48;;;;;;;;;;;;;;;;;;5086022;28;19920;-67
2024/01/09 12:37:15;;;;;;;;;;;;;;;;;;5093705;28;19928;-66
2024/01/09 12:39:41;;;;;;;;;;;;;;;;;;5091943;28;19946;-66
2024/01/09 12:42:07;;;;;;;;;;;;;;;;;;5086274;28;19924;-66
2024/01/09 12:44:33;;;;;;;;;;;;;;;;;;5093432;28;19969;-67
2024/01/09 12:46:59;;;;;;;;;;;;;;;;;;5086515;28;20309;-66
2024/01/09 12:49:26;;;;;;;;;;;;;;;;;;5090671;28;19921;-67
2024/01/09 12:51:53;;;;;;;;;;;;;;;;;;5089951;28;20367;-66
2024/01/09 12:54:19;;;;;;;;;;;;;;;;;;5074754;28;19924;-66
2024/01/09 12:56:45;;;;;;;;;;;;;;;;;;5086114;28;19928;-66
2024/01/09 12:59:12;;;;;;;;;;;;;;;;;;5086548;28;19920;-67
2024/01/09 13:01:39;;;;;;;;;;;;;;;;;;5091863;28;19928;-67
2024/01/09 13:04:05;;;;;;;;;;;;;;;;;;5093407;28;19924;-67
2024/01/09 13:06:31;;;;;;;;;;;;;;;;;;5093130;28;19920;-67
2024/01/09 13:08:58;;;;;;;;;;;;;;;;;;5083472;28;19924;-66
2024/01/09 13:11:24;;;;;;;;;;;;;;;;;;5091471;28;19949;-67
2024/01/09 13:13:50;;;;;;;;;;;;;;;;;;5079608;28;19924;-66
2024/01/09 13:16:18;;;;;;;;;;;;;;;;;;5092915;28;19920;-67
2024/01/09 13:18:44;;;;;;;;;;;;;;;;;;5081844;28;20379;-66
2024/01/09 13:21:10;;;;;;;;;;;;;;;;;;5088752;28;20328;-66
2024/01/09 13:23:37;;;;;;;;;;;;;;;;;;5083381;28;19920;-67
2024/01/09 13:26:03;;;;;;;;;;;;;;;;;;5090627;28;19924;-67
2024/01/09 13:28:30;;;;;;;;;;;;;;;;;;5084849;28;19978;-67
2024/01/09 13:30:56;;;;;;;;;;;;;;;;;;5092983;28;19924;-67
2024/01/09 13:33:22;;;;;;;;;;;;;;;;;;5079617;28;19973;-67
2024/01/09 13:35:48;;;;;;;;;;;;;;;;;;5087435;28;19973;-66
2024/01/09 13:38:17;;;;;;;28.42;27.23;;;;;;;;;;5084965;28;19978;-66
2024/01/09 13:40:44;;;;;;;;;;;;;;;;;;5092225;28;20491;-67
2024/01/09 13:43:10;;;;;;;;;;;;;;;;;;5083795;28;20327;-67
2024/01/09 13:45:37;;;;;;;;;;;;;;;;;;5091464;28;19920;-66
2024/01/09 13:48:03;;;;;;;32.78;30.92;;;;;;;;;;5080093;28;20016;-66
2024/01/09 13:50:30;;;;;;;67.32;64.65;;;;;;;;;;5081285;28;20439;-67
2024/01/09 13:52:56;;;;;;;;;;;;;;;;;;5094895;28;20048;-68
2024/01/09 13:55:22;;;;;;;;;;;;;;;;;;5087418;28;19973;-67
2024/01/09 13:57:49;;;;;;;;;;;;;;;;;;5092164;28;19966;-67
2024/01/09 14:00:16;;;;;;;;;;;;;;;;;;5085919;28;20019;-67
2024/01/09 14:02:45;;;;;;;32.28;30.77;;;;;;;;;;5084423;28;19963;-67
2024/01/09 14:05:12;;;;;;;32.03;30.88;;;;;;;;;;5091539;28;20050;-68
2024/01/09 14:07:39;;;;;;;43.42;41.92;;;;;;;;;;5091356;28;20495;-67
2024/01/09 14:10:06;;;;;;;30.95;29.60;;;;;;;;;;5091531;28;20107;-67
2024/01/09 14:12:34;;;;;;;;;;;;;;;;;;5092120;28;20048;-67
2024/01/09 14:15:00;;;;;;;;;;;;;;;;;;5092124;28;19928;-67
2024/01/09 14:17:27;;;;;;;;;;;;;;;;;;5084766;28;20042;-67
2024/01/09 14:19:55;;;;;;;33.95;32.53;;;;;;;;;;5091116;28;19997;-67
2024/01/09 14:22:21;;;;;;;73.80;70.90;;;;;;;;;;5088617;28;20830;-67
2024/01/09 14:24:48;;;;;;;44.53;42.90;;;;;;;;;;5091215;28;20083;-67
2024/01/09 14:27:15;;;;;;;42.90;41.08;;;;;;;;;;5091392;28;20678;-67
2024/01/09 14:29:41;;;;;;;35.95;34.45;;;;;;;;;;5091260;28;20036;-67
2024/01/09 14:32:08;;;;;;;33.95;32.63;;;;;;;;;;5091426;28;20130;-68
2024/01/09 14:34:35;;;;;;;;;;;;;;;;;;5082146;28;20460;-68
2024/01/09 14:37:01;;;;;;;;;;;;;;;;;;5086930;28;19924;-67
2024/01/09 14:39:29;;;;;;;34.80;33.30;;;;;;;;;;5091098;28;19959;-67
2024/01/09 14:41:56;;;;;;;;;;;;;;;;;;5091745;28;20048;-68
2024/01/09 14:44:23;;;;;;;27.98;26.98;;;;;;;;;;5091161;28;19923;-67
2024/01/09 14:46:50;;;;;;;;;;;;;;;;;;5091425;28;20403;-67
2024/01/09 14:49:16;;;;;;;;;;;;;;;;;;5091432;28;19989;-67
2024/01/09 14:51:46;;;;;;;;;;;;;;;;;;5085454;28;19974;-67
2024/01/09 14:54:12;;;;;;;;;;;;;;;;;;5091582;28;20010;-67
2024/01/09 14:56:40;;;;;;;41.55;39.95;;;;;;;;;;5090889;28;19932;-67
2024/01/09 14:59:07;;;;;;;33.85;32.65;;;;;;;;;;5091043;28;20115;-68
2024/01/09 15:01:33;;;;;;;31.08;29.77;;;;;;;;;;5090960;28;20056;-68
2024/01/09 15:04:00;;;;;;;39.75;37.88;;;;;;;;;;5088184;28;20044;-68
2024/01/09 15:06:26;;;;;;;33.08;31.88;;;;;;;;;;5085797;28;20096;-69
2024/01/09 15:08:53;;;;;;;31.95;30.75;;;;;;;;;;5078512;28;20048;-69
2024/01/09 15:11:20;;;;;;;30.23;28.95;;;;;;;;;;5090010;28;20101;-68
2024/01/09 15:13:48;;;;;;;28.20;26.90;;;;;;;;;;5084603;28;20048;-69
2024/01/09 15:16:15;;;;;;;31.15;30.02;;;;;;;;;;5082932;28;20052;-69
2024/01/09 15:18:41;;;;;;;34.38;33.17;;;;;;;;;;5082485;28;20048;-69
2024/01/09 15:21:08;;;;;;;31.83;30.63;;;;;;;;;;5101653;28;20043;-68
2024/01/09 15:23:35;;;;;;;35.90;34.42;;;;;;;;;;5090427;28;20040;-69
2024/01/09 15:26:03;;;;;;;31.20;29.95;;;;;;;;;;5084509;28;20048;-69
2024/01/09 15:28:29;;;;;;;35.60;34.33;;;;;;;;;;5090459;28;20048;-69
2024/01/09 15:30:57;;;;;;;33.40;32.20;;;;;;;;;;5082062;28;20518;-68
2024/01/09 15:33:23;;;;;;;31.25;30.08;;;;;;;;;;5091094;28;20094;-68
2024/01/09 15:35:50;;;;;;;30.83;29.42;;;;;;;;;;5090557;28;20587;-68
2024/01/09 15:38:16;;;;;;;;;;;;;;;;;;5088838;28;20135;-69
2024/01/09 15:40:43;;;;;;;;;;;;;;;;;;5091005;28;19974;-69
2024/01/09 15:43:09;;;;;;;;;;;;;;;;;;5077179;28;20378;-70
2024/01/09 15:45:35;;;;;;;;;;;;;;;;;;5092622;28;20336;-69
2024/01/09 15:48:02;;;;;;;;;;;;;;;;;;5093638;28;20332;-69
2024/01/09 15:50:29;;;;;;;;;;;;;;;;;;5094802;28;20435;-69
2024/01/09 15:52:55;;;;;;;;;;;;;;;;;;5083172;28;19924;-70
2024/01/09 15:55:21;;;;;;;;;;;;;;;;;;5083807;28;19974;-69